sensor_id;sensor_type;location;lat;lon;timestamp;P1;durP1;ratioP1;P2;durP2;ratioP2
7116;SDS011;3600;48.568;7.870;2024-03-23T00:55:46;3.80;;;2.95;;
7116;SDS011;3600;48.568;7.870;2024-03-23T01:05:33;3.30;;;3.00;;
7116;SDS011;3600;48.568;7.870;2024-03-23T01:08:25;4.13;;;3.05;;
7116;SDS011;3600;48.568;7.870;2024-03-23T01:11:42;3.30;;;3.10;;
7116;SDS011;3600;48.568;7.870;2024-03-23T01:18:05;3.70;;;2.90;;
7116;SDS011;3600;48.568;7.870;2024-03-23T01:24:51;3.47;;;2.45;;
7116;SDS011;3600;48.568;7.870;2024-03-23T01:28:02;3.25;;;2.95;;
7116;SDS011;3600;48.568;7.870;2024-03-23T01:31:31;3.45;;;3.15;;
7116;SDS011;3600;48.568;7.870;2024-03-23T01:34:52;2.97;;;2.55;;
7116;SDS011;3600;48.568;7.870;2024-03-23T01:45:11;3.25;;;2.42;;
7116;SDS011;3600;48.568;7.870;2024-03-23T01:47:56;2.58;;;2.38;;
7116;SDS011;3600;48.568;7.870;2024-03-23T01:54:14;2.67;;;2.47;;
7116;SDS011;3600;48.568;7.870;2024-03-23T01:57:27;2.90;;;2.22;;
7116;SDS011;3600;48.568;7.870;2024-03-23T02:01:01;2.80;;;2.60;;
7116;SDS011;3600;48.568;7.870;2024-03-23T02:14:09;2.72;;;2.53;;
7116;SDS011;3600;48.568;7.870;2024-03-23T02:17:20;2.90;;;2.65;;
7116;SDS011;3600;48.568;7.870;2024-03-23T02:23:40;4.05;;;3.13;;
7116;SDS011;3600;48.568;7.870;2024-03-23T02:26:34;3.33;;;2.58;;
7116;SDS011;3600;48.568;7.870;2024-03-23T02:29:35;3.13;;;2.65;;
7116;SDS011;3600;48.568;7.870;2024-03-23T02:37:03;4.18;;;3.15;;
7116;SDS011;3600;48.568;7.870;2024-03-23T02:43:42;3.10;;;2.90;;
7116;SDS011;3600;48.568;7.870;2024-03-23T02:46:10;3.15;;;2.70;;
7116;SDS011;3600;48.568;7.870;2024-03-23T02:49:42;3.38;;;3.05;;
7116;SDS011;3600;48.568;7.870;2024-03-23T02:55:49;3.75;;;2.88;;
7116;SDS011;3600;48.568;7.870;2024-03-23T02:59:00;2.90;;;2.70;;
7116;SDS011;3600;48.568;7.870;2024-03-23T03:05:31;3.33;;;2.53;;
7116;SDS011;3600;48.568;7.870;2024-03-23T03:11:20;3.38;;;3.08;;
7116;SDS011;3600;48.568;7.870;2024-03-23T03:13:58;3.75;;;3.22;;
7116;SDS011;3600;48.568;7.870;2024-03-23T03:23:45;5.80;;;3.22;;
7116;SDS011;3600;48.568;7.870;2024-03-23T03:33:44;5.93;;;3.28;;
7116;SDS011;3600;48.568;7.870;2024-03-23T03:44:47;4.20;;;3.78;;
7116;SDS011;3600;48.568;7.870;2024-03-23T03:47:35;5.38;;;4.40;;
7116;SDS011;3600;48.568;7.870;2024-03-23T03:54:18;10.57;;;8.10;;
7116;SDS011;3600;48.568;7.870;2024-03-23T03:56:44;10.98;;;9.23;;
7116;SDS011;3600;48.568;7.870;2024-03-23T03:59:10;10.80;;;9.70;;
7116;SDS011;3600;48.568;7.870;2024-03-23T04:01:36;12.77;;;10.68;;
7116;SDS011;3600;48.568;7.870;2024-03-23T04:04:02;11.90;;;10.70;;
7116;SDS011;3600;48.568;7.870;2024-03-23T04:06:28;13.20;;;10.43;;
7116;SDS011;3600;48.568;7.870;2024-03-23T04:08:55;13.38;;;11.25;;
7116;SDS011;3600;48.568;7.870;2024-03-23T04:11:21;13.05;;;10.82;;
7116;SDS011;3600;48.568;7.870;2024-03-23T04:13:47;13.95;;;11.13;;
7116;SDS011;3600;48.568;7.870;2024-03-23T04:16:24;12.35;;;10.30;;
7116;SDS011;3600;48.568;7.870;2024-03-23T04:18:53;14.57;;;12.20;;
7116;SDS011;3600;48.568;7.870;2024-03-23T04:21:20;11.73;;;10.52;;
7116;SDS011;3600;48.568;7.870;2024-03-23T04:23:47;13.45;;;10.70;;
7116;SDS011;3600;48.568;7.870;2024-03-23T04:26:13;11.13;;;9.68;;
7116;SDS011;3600;48.568;7.870;2024-03-23T04:28:39;11.25;;;9.90;;
7116;SDS011;3600;48.568;7.870;2024-03-23T04:31:05;10.60;;;9.20;;
7116;SDS011;3600;48.568;7.870;2024-03-23T04:33:32;13.02;;;10.48;;
7116;SDS011;3600;48.568;7.870;2024-03-23T04:35:58;10.60;;;9.50;;
7116;SDS011;3600;48.568;7.870;2024-03-23T04:38:24;9.95;;;8.50;;
7116;SDS011;3600;48.568;7.870;2024-03-23T04:40:54;10.32;;;8.45;;
7116;SDS011;3600;48.568;7.870;2024-03-23T04:43:23;9.63;;;8.45;;
7116;SDS011;3600;48.568;7.870;2024-03-23T04:45:50;11.55;;;8.45;;
7116;SDS011;3600;48.568;7.870;2024-03-23T04:48:16;9.77;;;8.63;;
7116;SDS011;3600;48.568;7.870;2024-03-23T04:50:44;10.32;;;8.63;;
7116;SDS011;3600;48.568;7.870;2024-03-23T04:53:10;9.65;;;8.65;;
7116;SDS011;3600;48.568;7.870;2024-03-23T04:55:36;8.32;;;7.40;;
7116;SDS011;3600;48.568;7.870;2024-03-23T04:58:02;5.82;;;5.20;;
7116;SDS011;3600;48.568;7.870;2024-03-23T05:00:30;6.65;;;4.88;;
7116;SDS011;3600;48.568;7.870;2024-03-23T05:02:57;5.22;;;4.18;;
7116;SDS011;3600;48.568;7.870;2024-03-23T05:05:23;4.65;;;3.50;;
7116;SDS011;3600;48.568;7.870;2024-03-23T05:07:49;5.35;;;4.03;;
7116;SDS011;3600;48.568;7.870;2024-03-23T05:10:16;2.92;;;2.72;;
7116;SDS011;3600;48.568;7.870;2024-03-23T05:12:42;3.00;;;2.70;;
7116;SDS011;3600;48.568;7.870;2024-03-23T05:15:10;6.45;;;2.80;;
7116;SDS011;3600;48.568;7.870;2024-03-23T05:17:36;3.30;;;2.00;;
7116;SDS011;3600;48.568;7.870;2024-03-23T05:20:03;2.10;;;1.90;;
7116;SDS011;3600;48.568;7.870;2024-03-23T05:22:30;1.20;;;1.20;;
7116;SDS011;3600;48.568;7.870;2024-03-23T05:24:56;1.38;;;1.27;;
7116;SDS011;3600;48.568;7.870;2024-03-23T05:27:23;1.25;;;1.15;;
7116;SDS011;3600;48.568;7.870;2024-03-23T05:29:50;0.90;;;0.90;;
7116;SDS011;3600;48.568;7.870;2024-03-23T05:32:19;1.10;;;0.85;;
7116;SDS011;3600;48.568;7.870;2024-03-23T05:34:45;0.93;;;0.93;;
7116;SDS011;3600;48.568;7.870;2024-03-23T05:37:11;0.77;;;0.70;;
7116;SDS011;3600;48.568;7.870;2024-03-23T05:39:37;0.98;;;0.98;;
7116;SDS011;3600;48.568;7.870;2024-03-23T05:42:04;0.88;;;0.88;;
7116;SDS011;3600;48.568;7.870;2024-03-23T05:44:30;3.17;;;0.93;;
7116;SDS011;3600;48.568;7.870;2024-03-23T05:46:56;0.68;;;0.68;;
7116;SDS011;3600;48.568;7.870;2024-03-23T06:00:57;0.60;;;0.60;;
7116;SDS011;3600;48.568;7.870;2024-03-23T06:08:17;1.90;;;0.50;;
7116;SDS011;3600;48.568;7.870;2024-03-23T06:11:39;0.40;;;0.40;;
7116;SDS011;3600;48.568;7.870;2024-03-23T06:14:56;0.60;;;0.40;;
7116;SDS011;3600;48.568;7.870;2024-03-23T07:04:08;1.20;;;1.10;;
7116;SDS011;3600;48.568;7.870;2024-03-23T07:18:13;2.50;;;1.98;;
7116;SDS011;3600;48.568;7.870;2024-03-23T07:21:17;1.42;;;1.33;;
7116;SDS011;3600;48.568;7.870;2024-03-23T07:24:43;3.50;;;2.30;;
7116;SDS011;3600;48.568;7.870;2024-03-23T07:28:02;2.83;;;2.53;;
7116;SDS011;3600;48.568;7.870;2024-03-23T07:31:49;4.43;;;2.38;;
7116;SDS011;3600;48.568;7.870;2024-03-23T07:35:25;3.85;;;2.65;;
7116;SDS011;3600;48.568;7.870;2024-03-23T07:38:21;3.85;;;2.65;;
7116;SDS011;3600;48.568;7.870;2024-03-23T07:49:05;3.72;;;2.58;;
7116;SDS011;3600;48.568;7.870;2024-03-23T08:03:17;2.30;;;2.10;;
7116;SDS011;3600;48.568;7.870;2024-03-23T08:09:45;7.53;;;3.92;;
7116;SDS011;3600;48.568;7.870;2024-03-23T08:16:05;7.70;;;4.10;;
7116;SDS011;3600;48.568;7.870;2024-03-23T08:26:45;5.53;;;3.60;;
7116;SDS011;3600;48.568;7.870;2024-03-23T08:33:59;5.70;;;3.35;;
7116;SDS011;3600;48.568;7.870;2024-03-23T08:36:55;8.70;;;3.90;;
7116;SDS011;3600;48.568;7.870;2024-03-23T08:40:47;9.65;;;3.08;;
7116;SDS011;3600;48.568;7.870;2024-03-23T08:43:37;7.63;;;3.95;;
7116;SDS011;3600;48.568;7.870;2024-03-23T08:46:09;8.98;;;4.18;;
7116;SDS011;3600;48.568;7.870;2024-03-23T08:49:04;9.02;;;4.22;;
7116;SDS011;3600;48.568;7.870;2024-03-23T08:51:48;10.48;;;4.38;;
7116;SDS011;3600;48.568;7.870;2024-03-23T08:54:18;6.85;;;3.95;;
7116;SDS011;3600;48.568;7.870;2024-03-23T08:57:02;7.35;;;3.58;;
7116;SDS011;3600;48.568;7.870;2024-03-23T08:59:32;8.48;;;3.83;;
7116;SDS011;3600;48.568;7.870;2024-03-23T09:02:27;6.63;;;3.50;;
7116;SDS011;3600;48.568;7.870;2024-03-23T09:05:02;4.63;;;3.40;;
7116;SDS011;3600;48.568;7.870;2024-03-23T09:07:58;6.75;;;3.50;;
7116;SDS011;3600;48.568;7.870;2024-03-23T09:10:29;7.60;;;3.80;;
7116;SDS011;3600;48.568;7.870;2024-03-23T09:15:53;5.75;;;3.38;;
7116;SDS011;3600;48.568;7.870;2024-03-23T09:18:25;5.22;;;3.88;;
7116;SDS011;3600;48.568;7.870;2024-03-23T09:21:10;5.40;;;3.00;;
7116;SDS011;3600;48.568;7.870;2024-03-23T09:27:15;6.05;;;3.47;;
7116;SDS011;3600;48.568;7.870;2024-03-23T09:29:47;5.32;;;3.50;;
7116;SDS011;3600;48.568;7.870;2024-03-23T09:32:20;4.22;;;2.75;;
7116;SDS011;3600;48.568;7.870;2024-03-23T09:34:52;2.72;;;1.98;;
7116;SDS011;3600;48.568;7.870;2024-03-23T09:37:21;3.13;;;1.73;;
7116;SDS011;3600;48.568;7.870;2024-03-23T09:39:47;4.85;;;2.15;;
7116;SDS011;3600;48.568;7.870;2024-03-23T09:42:39;5.80;;;2.00;;
7116;SDS011;3600;48.568;7.870;2024-03-23T09:45:21;3.97;;;1.87;;
7116;SDS011;3600;48.568;7.870;2024-03-23T09:48:14;6.10;;;2.20;;
7116;SDS011;3600;48.568;7.870;2024-03-23T09:50:57;2.33;;;1.80;;
7116;SDS011;3600;48.568;7.870;2024-03-23T09:53:35;4.33;;;2.10;;
7116;SDS011;3600;48.568;7.870;2024-03-23T09:56:03;5.40;;;2.83;;
7116;SDS011;3600;48.568;7.870;2024-03-23T09:58:35;2.90;;;2.03;;
7116;SDS011;3600;48.568;7.870;2024-03-23T10:01:12;7.40;;;2.27;;
7116;SDS011;3600;48.568;7.870;2024-03-23T10:03:50;4.17;;;2.30;;
7116;SDS011;3600;48.568;7.870;2024-03-23T10:06:45;6.47;;;2.20;;
7116;SDS011;3600;48.568;7.870;2024-03-23T10:12:24;2.53;;;1.93;;
7116;SDS011;3600;48.568;7.870;2024-03-23T10:14:59;4.27;;;2.27;;
7116;SDS011;3600;48.568;7.870;2024-03-23T10:17:30;6.53;;;2.70;;
7116;SDS011;3600;48.568;7.870;2024-03-23T10:20:02;6.50;;;2.70;;
7116;SDS011;3600;48.568;7.870;2024-03-23T10:22:39;5.27;;;2.90;;
7116;SDS011;3600;48.568;7.870;2024-03-23T10:25:09;7.67;;;4.53;;
7116;SDS011;3600;48.568;7.870;2024-03-23T10:27:45;10.68;;;9.10;;
7116;SDS011;3600;48.568;7.870;2024-03-23T10:30:35;4.80;;;2.60;;
7116;SDS011;3600;48.568;7.870;2024-03-23T10:33:11;5.85;;;3.17;;
7116;SDS011;3600;48.568;7.870;2024-03-23T10:35:46;5.70;;;3.17;;
7116;SDS011;3600;48.568;7.870;2024-03-23T10:38:18;5.40;;;3.00;;
7116;SDS011;3600;48.568;7.870;2024-03-23T10:40:55;5.38;;;2.58;;
7116;SDS011;3600;48.568;7.870;2024-03-23T10:43:28;5.22;;;2.53;;
7116;SDS011;3600;48.568;7.870;2024-03-23T10:46:24;4.22;;;2.95;;
7116;SDS011;3600;48.568;7.870;2024-03-23T10:48:59;4.05;;;2.45;;
7116;SDS011;3600;48.568;7.870;2024-03-23T10:51:31;5.15;;;2.40;;
7116;SDS011;3600;48.568;7.870;2024-03-23T10:54:00;4.53;;;2.67;;
7116;SDS011;3600;48.568;7.870;2024-03-23T10:56:44;3.08;;;2.42;;
7116;SDS011;3600;48.568;7.870;2024-03-23T10:59:18;5.78;;;2.47;;
7116;SDS011;3600;48.568;7.870;2024-03-23T11:01:56;2.83;;;2.05;;
7116;SDS011;3600;48.568;7.870;2024-03-23T11:04:34;3.72;;;2.58;;
7116;SDS011;3600;48.568;7.870;2024-03-23T11:07:28;7.47;;;5.18;;
7116;SDS011;3600;48.568;7.870;2024-03-23T11:09:58;5.68;;;3.08;;
7116;SDS011;3600;48.568;7.870;2024-03-23T11:12:29;3.80;;;2.50;;
7116;SDS011;3600;48.568;7.870;2024-03-23T11:15:12;3.78;;;2.20;;
7116;SDS011;3600;48.568;7.870;2024-03-23T11:18:07;8.13;;;3.00;;
7116;SDS011;3600;48.568;7.870;2024-03-23T11:20:42;7.47;;;2.45;;
7116;SDS011;3600;48.568;7.870;2024-03-23T11:23:38;4.95;;;2.15;;
7116;SDS011;3600;48.568;7.870;2024-03-23T11:26:17;2.08;;;1.75;;
7116;SDS011;3600;48.568;7.870;2024-03-23T11:28:49;2.25;;;1.38;;
7116;SDS011;3600;48.568;7.870;2024-03-23T11:31:52;3.58;;;1.42;;
7116;SDS011;3600;48.568;7.870;2024-03-23T11:34:26;2.33;;;1.20;;
7116;SDS011;3600;48.568;7.870;2024-03-23T11:37:04;2.92;;;1.95;;
7116;SDS011;3600;48.568;7.870;2024-03-23T11:39:58;3.10;;;1.40;;
7116;SDS011;3600;48.568;7.870;2024-03-23T11:42:35;3.33;;;1.55;;
7116;SDS011;3600;48.568;7.870;2024-03-23T11:45:18;1.58;;;1.27;;
7116;SDS011;3600;48.568;7.870;2024-03-23T11:47:44;6.65;;;1.95;;
7116;SDS011;3600;48.568;7.870;2024-03-23T11:50:43;3.15;;;2.10;;
7116;SDS011;3600;48.568;7.870;2024-03-23T11:53:26;4.20;;;2.30;;
7116;SDS011;3600;48.568;7.870;2024-03-23T11:56:07;3.55;;;1.85;;
7116;SDS011;3600;48.568;7.870;2024-03-23T11:58:43;2.70;;;1.90;;
7116;SDS011;3600;48.568;7.870;2024-03-23T12:01:14;3.85;;;2.05;;
7116;SDS011;3600;48.568;7.870;2024-03-23T12:07:10;2.03;;;1.90;;
7116;SDS011;3600;48.568;7.870;2024-03-23T12:13:06;3.83;;;2.35;;
7116;SDS011;3600;48.568;7.870;2024-03-23T12:15:57;2.88;;;1.80;;
7116;SDS011;3600;48.568;7.870;2024-03-23T12:19:07;4.68;;;1.88;;
7116;SDS011;3600;48.568;7.870;2024-03-23T12:25:07;4.70;;;1.75;;
7116;SDS011;3600;48.568;7.870;2024-03-23T12:27:51;4.40;;;1.90;;
7116;SDS011;3600;48.568;7.870;2024-03-23T12:30:46;3.72;;;1.63;;
7116;SDS011;3600;48.568;7.870;2024-03-23T12:33:56;3.88;;;1.70;;
7116;SDS011;3600;48.568;7.870;2024-03-23T12:39:44;2.85;;;1.40;;
7116;SDS011;3600;48.568;7.870;2024-03-23T12:46:27;1.08;;;0.75;;
7116;SDS011;3600;48.568;7.870;2024-03-23T12:49:15;1.65;;;0.80;;
7116;SDS011;3600;48.568;7.870;2024-03-23T12:52:44;1.38;;;0.70;;
7116;SDS011;3600;48.568;7.870;2024-03-23T12:58:30;3.38;;;1.38;;
7116;SDS011;3600;48.568;7.870;2024-03-23T13:01:16;2.35;;;1.13;;
7116;SDS011;3600;48.568;7.870;2024-03-23T13:06:39;3.70;;;1.20;;
7116;SDS011;3600;48.568;7.870;2024-03-23T13:09:29;3.50;;;0.93;;
7116;SDS011;3600;48.568;7.870;2024-03-23T13:11:57;2.45;;;1.13;;
7116;SDS011;3600;48.568;7.870;2024-03-23T13:14:23;3.05;;;1.20;;
7116;SDS011;3600;48.568;7.870;2024-03-23T13:16:59;3.92;;;1.02;;
7116;SDS011;3600;48.568;7.870;2024-03-23T13:19:31;2.50;;;0.98;;
7116;SDS011;3600;48.568;7.870;2024-03-23T13:22:00;1.58;;;1.08;;
7116;SDS011;3600;48.568;7.870;2024-03-23T13:24:32;2.33;;;1.08;;
7116;SDS011;3600;48.568;7.870;2024-03-23T13:27:03;3.03;;;1.15;;
7116;SDS011;3600;48.568;7.870;2024-03-23T13:29:32;3.95;;;1.08;;
7116;SDS011;3600;48.568;7.870;2024-03-23T13:32:00;3.38;;;1.23;;
7116;SDS011;3600;48.568;7.870;2024-03-23T13:34:29;3.35;;;1.13;;
7116;SDS011;3600;48.568;7.870;2024-03-23T13:36:59;1.42;;;0.75;;
7116;SDS011;3600;48.568;7.870;2024-03-23T13:39:41;1.77;;;0.90;;
7116;SDS011;3600;48.568;7.870;2024-03-23T13:42:23;1.38;;;0.82;;
7116;SDS011;3600;48.568;7.870;2024-03-23T13:45:03;2.25;;;1.00;;
7116;SDS011;3600;48.568;7.870;2024-03-23T13:47:43;3.00;;;1.27;;
7116;SDS011;3600;48.568;7.870;2024-03-23T13:50:12;1.67;;;0.90;;
7116;SDS011;3600;48.568;7.870;2024-03-23T13:52:44;2.80;;;0.93;;
7116;SDS011;3600;48.568;7.870;2024-03-23T13:55:16;3.85;;;1.13;;
7116;SDS011;3600;48.568;7.870;2024-03-23T13:57:53;1.45;;;0.80;;
7116;SDS011;3600;48.568;7.870;2024-03-23T14:00:29;0.82;;;0.70;;
7116;SDS011;3600;48.568;7.870;2024-03-23T14:03:06;1.20;;;0.88;;
7116;SDS011;3600;48.568;7.870;2024-03-23T14:05:38;2.75;;;0.68;;
7116;SDS011;3600;48.568;7.870;2024-03-23T14:08:41;2.35;;;0.80;;
7116;SDS011;3600;48.568;7.870;2024-03-23T14:11:30;1.83;;;0.95;;
7116;SDS011;3600;48.568;7.870;2024-03-23T14:14:28;1.60;;;0.80;;
7116;SDS011;3600;48.568;7.870;2024-03-23T14:16:54;1.45;;;1.00;;
7116;SDS011;3600;48.568;7.870;2024-03-23T14:19:53;2.50;;;0.77;;
7116;SDS011;3600;48.568;7.870;2024-03-23T14:22:31;2.90;;;0.95;;
7116;SDS011;3600;48.568;7.870;2024-03-23T14:25:52;5.15;;;1.10;;
7116;SDS011;3600;48.568;7.870;2024-03-23T14:31:58;3.08;;;0.95;;
7116;SDS011;3600;48.568;7.870;2024-03-23T14:34:39;1.30;;;0.60;;
7116;SDS011;3600;48.568;7.870;2024-03-23T14:37:45;0.63;;;0.50;;
7116;SDS011;3600;48.568;7.870;2024-03-23T14:43:21;0.50;;;0.50;;
7116;SDS011;3600;48.568;7.870;2024-03-23T14:46:45;0.50;;;0.50;;
7116;SDS011;3600;48.568;7.870;2024-03-23T14:49:44;0.40;;;0.40;;
7116;SDS011;3600;48.568;7.870;2024-03-23T14:56:48;1.13;;;0.75;;
7116;SDS011;3600;48.568;7.870;2024-03-23T15:03:23;0.85;;;0.77;;
7116;SDS011;3600;48.568;7.870;2024-03-23T15:06:47;0.40;;;0.40;;
7116;SDS011;3600;48.568;7.870;2024-03-23T15:09:43;1.50;;;0.63;;
7116;SDS011;3600;48.568;7.870;2024-03-23T15:12:37;2.17;;;0.55;;
7116;SDS011;3600;48.568;7.870;2024-03-23T15:15:38;1.00;;;0.65;;
7116;SDS011;3600;48.568;7.870;2024-03-23T15:22:41;2.88;;;0.93;;
7116;SDS011;3600;48.568;7.870;2024-03-23T15:32:16;1.23;;;0.50;;
7116;SDS011;3600;48.568;7.870;2024-03-23T15:35:18;3.90;;;1.00;;
7116;SDS011;3600;48.568;7.870;2024-03-23T15:38:19;0.55;;;0.50;;
7116;SDS011;3600;48.568;7.870;2024-03-23T15:58:14;1.63;;;0.77;;
7116;SDS011;3600;48.568;7.870;2024-03-23T16:04:08;2.92;;;0.82;;
7116;SDS011;3600;48.568;7.870;2024-03-23T16:07:02;3.25;;;1.05;;
7116;SDS011;3600;48.568;7.870;2024-03-23T16:09:47;3.03;;;1.25;;
7116;SDS011;3600;48.568;7.870;2024-03-23T16:12:43;0.98;;;0.80;;
7116;SDS011;3600;48.568;7.870;2024-03-23T16:19:05;1.23;;;0.57;;
7116;SDS011;3600;48.568;7.870;2024-03-23T16:22:28;0.43;;;0.43;;
7116;SDS011;3600;48.568;7.870;2024-03-23T16:25:52;1.60;;;0.85;;
7116;SDS011;3600;48.568;7.870;2024-03-23T16:28:46;1.30;;;0.65;;
7116;SDS011;3600;48.568;7.870;2024-03-23T16:31:33;3.60;;;1.30;;
7116;SDS011;3600;48.568;7.870;2024-03-23T16:37:24;1.98;;;1.05;;
7116;SDS011;3600;48.568;7.870;2024-03-23T16:40:24;1.13;;;0.57;;
7116;SDS011;3600;48.568;7.870;2024-03-23T16:42:58;2.83;;;0.70;;
7116;SDS011;3600;48.568;7.870;2024-03-23T16:48:53;2.73;;;1.00;;
7116;SDS011;3600;48.568;7.870;2024-03-23T16:55:03;2.33;;;1.00;;
7116;SDS011;3600;48.568;7.870;2024-03-23T16:58:09;1.17;;;0.80;;
7116;SDS011;3600;48.568;7.870;2024-03-23T17:00:49;2.00;;;1.13;;
7116;SDS011;3600;48.568;7.870;2024-03-23T17:03:28;1.33;;;1.02;;
7116;SDS011;3600;48.568;7.870;2024-03-23T17:06:16;2.20;;;1.20;;
7116;SDS011;3600;48.568;7.870;2024-03-23T17:09:10;3.97;;;0.90;;
7116;SDS011;3600;48.568;7.870;2024-03-23T17:11:53;2.53;;;1.30;;
7116;SDS011;3600;48.568;7.870;2024-03-23T17:14:25;1.65;;;0.80;;
7116;SDS011;3600;48.568;7.870;2024-03-23T17:17:24;3.30;;;1.10;;
7116;SDS011;3600;48.568;7.870;2024-03-23T17:20:11;2.30;;;1.43;;
7116;SDS011;3600;48.568;7.870;2024-03-23T17:22:52;4.75;;;2.50;;
7116;SDS011;3600;48.568;7.870;2024-03-23T17:26:04;3.07;;;2.13;;
7116;SDS011;3600;48.568;7.870;2024-03-23T17:32:26;2.10;;;1.03;;
7116;SDS011;3600;48.568;7.870;2024-03-23T17:38:08;2.90;;;0.90;;
7116;SDS011;3600;48.568;7.870;2024-03-23T17:42:19;1.37;;;1.27;;
7116;SDS011;3600;48.568;7.870;2024-03-23T17:44:51;3.87;;;2.13;;
7116;SDS011;3600;48.568;7.870;2024-03-23T17:47:23;3.80;;;2.33;;
7116;SDS011;3600;48.568;7.870;2024-03-23T17:50:48;1.47;;;0.90;;
7116;SDS011;3600;48.568;7.870;2024-03-23T17:53:40;0.80;;;0.80;;
7116;SDS011;3600;48.568;7.870;2024-03-23T17:59:49;2.10;;;1.67;;
7116;SDS011;3600;48.568;7.870;2024-03-23T18:02:23;0.83;;;0.83;;
7116;SDS011;3600;48.568;7.870;2024-03-23T18:04:52;0.97;;;0.83;;
7116;SDS011;3600;48.568;7.870;2024-03-23T18:07:25;2.20;;;1.20;;
7116;SDS011;3600;48.568;7.870;2024-03-23T18:10:17;2.27;;;0.90;;
7116;SDS011;3600;48.568;7.870;2024-03-23T18:13:14;1.10;;;0.90;;
7116;SDS011;3600;48.568;7.870;2024-03-23T18:15:40;1.00;;;0.90;;
7116;SDS011;3600;48.568;7.870;2024-03-23T18:18:10;0.90;;;0.77;;
7116;SDS011;3600;48.568;7.870;2024-03-23T18:20:38;0.70;;;0.70;;
7116;SDS011;3600;48.568;7.870;2024-03-23T18:23:10;0.87;;;0.70;;
7116;SDS011;3600;48.568;7.870;2024-03-23T18:25:55;1.00;;;0.83;;
7116;SDS011;3600;48.568;7.870;2024-03-23T18:28:32;0.60;;;0.60;;
7116;SDS011;3600;48.568;7.870;2024-03-23T18:31:10;1.40;;;0.77;;
7116;SDS011;3600;48.568;7.870;2024-03-23T18:33:51;2.73;;;0.90;;
7116;SDS011;3600;48.568;7.870;2024-03-23T18:36:28;1.20;;;0.60;;
7116;SDS011;3600;48.568;7.870;2024-03-23T18:39:09;2.43;;;0.80;;
7116;SDS011;3600;48.568;7.870;2024-03-23T18:41:44;1.17;;;0.70;;
7116;SDS011;3600;48.568;7.870;2024-03-23T18:44:25;1.07;;;0.60;;
7116;SDS011;3600;48.568;7.870;2024-03-23T18:47:17;1.17;;;0.63;;
7116;SDS011;3600;48.568;7.870;2024-03-23T18:49:52;2.00;;;1.17;;
7116;SDS011;3600;48.568;7.870;2024-03-23T18:52:27;1.60;;;1.03;;
7116;SDS011;3600;48.568;7.870;2024-03-23T18:54:59;0.97;;;0.80;;
7116;SDS011;3600;48.568;7.870;2024-03-23T18:57:33;2.70;;;1.00;;
7116;SDS011;3600;48.568;7.870;2024-03-23T19:00:35;1.60;;;1.00;;
7116;SDS011;3600;48.568;7.870;2024-03-23T19:03:20;1.00;;;1.00;;
7116;SDS011;3600;48.568;7.870;2024-03-23T19:09:05;2.50;;;1.80;;
7116;SDS011;3600;48.568;7.870;2024-03-23T19:11:55;3.17;;;1.80;;
7116;SDS011;3600;48.568;7.870;2024-03-23T19:15:32;1.30;;;1.20;;
7116;SDS011;3600;48.568;7.870;2024-03-23T19:18:51;1.77;;;1.03;;
7116;SDS011;3600;48.568;7.870;2024-03-23T19:21:17;1.67;;;0.87;;
7116;SDS011;3600;48.568;7.870;2024-03-23T19:23:44;0.87;;;0.87;;
7116;SDS011;3600;48.568;7.870;2024-03-23T19:26:28;0.80;;;0.80;;
7116;SDS011;3600;48.568;7.870;2024-03-23T19:29:00;1.23;;;1.00;;
7116;SDS011;3600;48.568;7.870;2024-03-23T19:34:36;2.53;;;1.60;;
7116;SDS011;3600;48.568;7.870;2024-03-23T19:37:22;1.57;;;1.40;;
7116;SDS011;3600;48.568;7.870;2024-03-23T19:40:16;2.70;;;2.50;;
7116;SDS011;3600;48.568;7.870;2024-03-23T19:43:10;2.57;;;1.30;;
7116;SDS011;3600;48.568;7.870;2024-03-23T19:45:54;1.30;;;1.20;;
7116;SDS011;3600;48.568;7.870;2024-03-23T19:48:45;1.83;;;1.73;;
7116;SDS011;3600;48.568;7.870;2024-03-23T19:51:25;2.83;;;1.50;;
7116;SDS011;3600;48.568;7.870;2024-03-23T19:53:54;1.83;;;1.70;;
7116;SDS011;3600;48.568;7.870;2024-03-23T19:56:29;2.13;;;2.00;;
7116;SDS011;3600;48.568;7.870;2024-03-23T19:59:04;1.73;;;1.63;;
7116;SDS011;3600;48.568;7.870;2024-03-23T20:01:44;1.53;;;1.10;;
7116;SDS011;3600;48.568;7.870;2024-03-23T20:04:14;2.10;;;1.53;;
7116;SDS011;3600;48.568;7.870;2024-03-23T20:06:43;1.37;;;1.27;;
7116;SDS011;3600;48.568;7.870;2024-03-23T20:09:10;2.13;;;1.50;;
7116;SDS011;3600;48.568;7.870;2024-03-23T20:11:48;1.53;;;1.20;;
7116;SDS011;3600;48.568;7.870;2024-03-23T20:14:17;2.67;;;1.70;;
7116;SDS011;3600;48.568;7.870;2024-03-23T20:16:49;2.70;;;2.30;;
7116;SDS011;3600;48.568;7.870;2024-03-23T20:19:41;3.00;;;2.27;;
7116;SDS011;3600;48.568;7.870;2024-03-23T20:22:42;2.03;;;1.93;;
7116;SDS011;3600;48.568;7.870;2024-03-23T20:27:59;2.37;;;2.17;;
7116;SDS011;3600;48.568;7.870;2024-03-23T20:30:33;1.57;;;1.10;;
7116;SDS011;3600;48.568;7.870;2024-03-23T20:33:11;1.97;;;0.90;;
7116;SDS011;3600;48.568;7.870;2024-03-23T20:36:18;0.80;;;0.80;;
7116;SDS011;3600;48.568;7.870;2024-03-23T20:39:17;0.80;;;0.70;;
7116;SDS011;3600;48.568;7.870;2024-03-23T20:42:02;1.70;;;0.80;;
7116;SDS011;3600;48.568;7.870;2024-03-23T20:45:20;0.97;;;0.83;;
7116;SDS011;3600;48.568;7.870;2024-03-23T20:51:05;0.80;;;0.80;;
7116;SDS011;3600;48.568;7.870;2024-03-23T20:54:12;1.03;;;0.60;;
7116;SDS011;3600;48.568;7.870;2024-03-23T20:57:17;0.63;;;0.63;;
7116;SDS011;3600;48.568;7.870;2024-03-23T20:59:43;1.27;;;0.80;;
7116;SDS011;3600;48.568;7.870;2024-03-23T21:02:16;1.47;;;0.90;;
7116;SDS011;3600;48.568;7.870;2024-03-23T21:04:44;1.00;;;0.90;;
7116;SDS011;3600;48.568;7.870;2024-03-23T21:07:23;0.90;;;0.90;;
7116;SDS011;3600;48.568;7.870;2024-03-23T21:09:54;1.07;;;1.00;;
7116;SDS011;3600;48.568;7.870;2024-03-23T21:12:22;1.63;;;1.00;;
7116;SDS011;3600;48.568;7.870;2024-03-23T21:15:09;0.80;;;0.80;;
7116;SDS011;3600;48.568;7.870;2024-03-23T21:17:37;0.83;;;0.83;;
7116;SDS011;3600;48.568;7.870;2024-03-23T21:20:10;0.87;;;0.83;;
7116;SDS011;3600;48.568;7.870;2024-03-23T21:22:39;1.20;;;1.10;;
7116;SDS011;3600;48.568;7.870;2024-03-23T21:25:14;1.37;;;0.90;;
7116;SDS011;3600;48.568;7.870;2024-03-23T21:28:04;0.77;;;0.77;;
7116;SDS011;3600;48.568;7.870;2024-03-23T21:30:35;1.27;;;0.73;;
7116;SDS011;3600;48.568;7.870;2024-03-23T21:33:36;1.47;;;0.90;;
7116;SDS011;3600;48.568;7.870;2024-03-23T21:36:11;0.60;;;0.60;;
7116;SDS011;3600;48.568;7.870;2024-03-23T21:38:47;1.83;;;0.83;;
7116;SDS011;3600;48.568;7.870;2024-03-23T21:41:21;2.27;;;1.03;;
7116;SDS011;3600;48.568;7.870;2024-03-23T21:43:51;1.53;;;0.80;;
7116;SDS011;3600;48.568;7.870;2024-03-23T21:46:37;0.50;;;0.50;;
7116;SDS011;3600;48.568;7.870;2024-03-23T21:49:06;0.63;;;0.63;;
7116;SDS011;3600;48.568;7.870;2024-03-23T21:51:43;0.90;;;0.80;;
7116;SDS011;3600;48.568;7.870;2024-03-23T21:54:12;0.87;;;0.83;;
7116;SDS011;3600;48.568;7.870;2024-03-23T21:56:47;0.97;;;0.97;;
7116;SDS011;3600;48.568;7.870;2024-03-23T21:59:31;1.10;;;0.83;;
7116;SDS011;3600;48.568;7.870;2024-03-23T22:02:02;1.50;;;1.30;;
7116;SDS011;3600;48.568;7.870;2024-03-23T22:04:54;0.97;;;0.63;;
7116;SDS011;3600;48.568;7.870;2024-03-23T22:07:39;1.03;;;1.00;;
7116;SDS011;3600;48.568;7.870;2024-03-23T22:10:16;0.80;;;0.80;;
7116;SDS011;3600;48.568;7.870;2024-03-23T22:12:54;1.73;;;1.10;;
7116;SDS011;3600;48.568;7.870;2024-03-23T22:15:32;1.47;;;0.87;;
7116;SDS011;3600;48.568;7.870;2024-03-23T22:21:16;2.30;;;0.77;;
7116;SDS011;3600;48.568;7.870;2024-03-23T22:23:51;0.97;;;0.97;;
7116;SDS011;3600;48.568;7.870;2024-03-23T22:26:17;1.77;;;0.87;;
7116;SDS011;3600;48.568;7.870;2024-03-23T22:29:05;1.13;;;1.03;;
7116;SDS011;3600;48.568;7.870;2024-03-23T22:31:43;0.60;;;0.60;;
7116;SDS011;3600;48.568;7.870;2024-03-23T22:34:22;0.90;;;0.77;;
7116;SDS011;3600;48.568;7.870;2024-03-23T22:37:13;1.57;;;0.87;;
7116;SDS011;3600;48.568;7.870;2024-03-23T22:40:06;1.20;;;1.07;;
7116;SDS011;3600;48.568;7.870;2024-03-23T22:42:38;1.57;;;1.23;;
7116;SDS011;3600;48.568;7.870;2024-03-23T22:45:05;1.20;;;0.90;;
7116;SDS011;3600;48.568;7.870;2024-03-23T22:51:20;0.73;;;0.73;;
7116;SDS011;3600;48.568;7.870;2024-03-23T22:54:11;1.00;;;0.90;;
7116;SDS011;3600;48.568;7.870;2024-03-23T22:56:41;0.80;;;0.67;;
7116;SDS011;3600;48.568;7.870;2024-03-23T22:59:11;1.37;;;0.90;;
7116;SDS011;3600;48.568;7.870;2024-03-23T23:01:48;1.80;;;0.80;;
7116;SDS011;3600;48.568;7.870;2024-03-23T23:04:43;0.73;;;0.73;;